createdAt,value
2019-05-30T04:02:02.857Z,29.80
2019-05-30T04:04:59.789Z,29.90
2019-05-30T04:07:56.560Z,29.90
2019-05-30T04:10:53.827Z,29.20
2019-05-30T04:13:56.031Z,28.50
2019-05-30T04:16:50.639Z,28.10
2019-05-30T04:19:46.846Z,27.90
2019-05-30T04:22:41.638Z,27.70
2019-05-30T04:25:34.917Z,27.60
2019-05-30T04:28:30.192Z,27.50
2019-05-30T04:31:24.078Z,27.50
2019-05-30T04:34:19.745Z,27.50
2019-05-30T04:37:14.894Z,27.30
2019-05-30T04:40:11.398Z,27.20
2019-05-30T04:43:07.259Z,27.20
2019-05-30T04:46:01.521Z,27.10
2019-05-30T04:48:55.298Z,27.10
2019-05-30T04:51:50.087Z,27.10
2019-05-30T04:54:47.163Z,27.10
2019-05-30T04:57:41.391Z,27.20
2019-05-30T05:00:35.603Z,27.00
2019-05-30T05:03:45.218Z,27.20
2019-05-30T05:06:27.147Z,27.80
2019-05-30T05:09:22.740Z,28.00
2019-05-30T05:12:20.265Z,28.20
2019-05-30T05:15:16.315Z,28.60
2019-05-30T05:18:13.044Z,28.70
2019-05-30T05:21:12.831Z,28.80
2019-05-30T05:24:08.150Z,28.90
2019-05-30T05:27:17.665Z,29.00
2019-05-30T05:30:24.305Z,29.10
2019-05-30T05:33:20.589Z,29.00
2019-05-30T05:36:14.882Z,29.00
2019-05-30T05:39:13.508Z,29.10
2019-05-30T05:42:09.582Z,29.10
2019-05-30T05:45:03.688Z,29.10
2019-05-30T05:47:58.385Z,29.10
2019-05-30T05:50:56.088Z,29.10
2019-05-30T05:53:51.678Z,29.10
2019-05-30T05:56:54.137Z,29.20
2019-05-30T05:59:48.660Z,29.20
2019-05-30T06:02:44.080Z,29.10
2019-05-30T06:05:52.155Z,29.10
2019-05-30T06:08:33.295Z,29.20
2019-05-30T06:11:28.910Z,29.20
2019-05-30T06:14:24.232Z,29.10
2019-05-30T06:17:19.137Z,29.10
2019-05-30T06:20:14.030Z,29.10
2019-05-30T06:23:10.858Z,29.10
2019-05-30T06:26:07.569Z,29.10
2019-05-30T06:29:02.639Z,29.10
2019-05-30T06:31:58.707Z,29.20
2019-05-30T06:34:52.062Z,29.20
2019-05-30T06:37:46.876Z,29.20
2019-05-30T06:40:41.651Z,29.30
2019-05-30T06:43:38.753Z,29.40
2019-05-30T06:46:33.193Z,29.50
2019-05-30T06:49:31.038Z,29.30
2019-05-30T06:52:27.003Z,29.40
2019-05-30T06:55:26.939Z,29.50
2019-05-30T06:58:47.462Z,29.30
2019-05-30T07:01:30.007Z,29.30
2019-05-30T07:04:27.823Z,29.30
2019-05-30T07:07:22.735Z,29.30
2019-05-30T07:10:19.698Z,29.30
2019-05-30T07:13:16.736Z,29.40
2019-05-30T07:16:17.834Z,29.40
2019-05-30T07:19:12.114Z,29.40
2019-05-30T07:22:10.718Z,29.40
2019-05-30T07:25:05.028Z,29.40
2019-05-30T07:27:59.781Z,29.40
2019-05-30T07:31:01.743Z,29.50
2019-05-30T07:33:56.605Z,29.40
2019-05-30T07:36:50.336Z,29.40
2019-05-30T07:39:45.199Z,29.40
2019-05-30T07:42:39.980Z,29.40
2019-05-30T07:45:35.087Z,29.50
2019-05-30T07:48:28.428Z,29.50
2019-05-30T07:51:24.552Z,29.40
2019-05-30T07:54:18.459Z,29.40
2019-05-30T07:57:15.031Z,29.40
2019-05-30T08:00:10.991Z,29.40
2019-05-30T08:03:07.286Z,29.40
2019-05-30T08:06:02.597Z,29.50
2019-05-30T08:08:57.615Z,29.50
2019-05-30T08:11:53.777Z,29.40
2019-05-30T08:14:48.862Z,29.40
2019-05-30T08:17:44.446Z,29.40
2019-05-30T08:20:39.212Z,29.40
2019-05-30T08:23:34.780Z,29.40
2019-05-30T08:26:30.066Z,29.40
2019-05-30T08:29:25.429Z,29.40
2019-05-30T08:32:19.946Z,29.50
2019-05-30T08:35:16.453Z,29.60
2019-05-30T08:38:12.512Z,29.60
2019-05-30T08:41:09.092Z,29.60
2019-05-30T08:44:02.673Z,29.70
2019-05-30T08:46:56.820Z,29.90
2019-05-30T08:49:51.520Z,30.10
2019-05-30T08:52:46.198Z,30.20
2019-05-30T08:55:48.746Z,30.30
2019-05-30T08:58:53.549Z,30.30
2019-05-30T09:01:53.456Z,30.40
2019-05-30T09:04:56.835Z,30.40
2019-05-30T09:08:03.888Z,30.30
2019-05-30T09:11:08.035Z,30.30
2019-05-30T09:14:05.642Z,30.40
2019-05-30T09:17:00.374Z,30.30
2019-05-30T09:19:55.259Z,30.20
2019-05-30T09:23:00.200Z,30.10
2019-05-30T09:26:03.939Z,30.10
2019-05-30T09:29:03.743Z,30.00
2019-05-30T09:31:58.237Z,29.90
2019-05-30T09:34:59.174Z,29.90
2019-05-30T09:37:56.593Z,29.90
2019-05-30T09:40:49.763Z,29.90
2019-05-30T09:43:46.187Z,29.90
2019-05-30T09:46:44.146Z,29.90
2019-05-30T09:49:43.157Z,29.80
2019-05-30T09:52:38.214Z,29.80
2019-05-30T09:55:32.074Z,29.80
2019-05-30T09:58:33.983Z,29.70
2019-05-30T10:01:27.875Z,29.80
2019-05-30T10:04:24.788Z,29.80
2019-05-30T10:07:20.017Z,29.80
2019-05-30T10:10:14.492Z,29.80
2019-05-30T10:13:12.294Z,29.80
2019-05-30T10:16:06.653Z,29.80
2019-05-30T10:19:00.985Z,29.80
2019-05-30T10:21:57.272Z,29.80
2019-05-30T10:24:51.195Z,29.90
2019-05-30T10:27:46.420Z,29.90
2019-05-30T10:30:51.789Z,29.90
2019-05-30T10:33:41.171Z,29.80
2019-05-30T10:36:43.804Z,29.90
2019-05-30T10:39:31.602Z,29.90
2019-05-30T10:42:24.837Z,29.90
2019-05-30T10:45:20.661Z,29.90
2019-05-30T10:48:13.459Z,29.90
2019-05-30T10:51:07.189Z,29.90
2019-05-30T10:54:01.759Z,30.20
2019-05-30T10:56:58.178Z,30.50
2019-05-30T10:59:52.554Z,30.60
2019-05-30T11:02:47.867Z,30.70
2019-05-30T11:05:43.031Z,30.80
2019-05-30T11:08:36.829Z,30.90
2019-05-30T11:11:29.963Z,31.00
2019-05-30T11:14:23.734Z,31.00
2019-05-30T11:17:30.871Z,31.10
2019-05-30T11:20:33.075Z,31.10
2019-05-30T11:23:39.525Z,31.20
2019-05-30T11:26:40.002Z,31.30
2019-05-30T11:29:37.240Z,31.20
2019-05-30T11:32:32.027Z,31.10
2019-05-30T11:35:25.817Z,31.10
2019-05-30T11:38:18.518Z,31.10
2019-05-30T11:41:13.424Z,31.10
2019-05-30T11:44:08.141Z,31.10
2019-05-30T11:47:02.972Z,31.10
2019-05-30T11:49:57.720Z,31.10
2019-05-30T11:52:53.782Z,31.10
2019-05-30T11:55:50.139Z,31.10
2019-05-30T11:58:44.737Z,31.10
2019-05-30T12:01:42.184Z,31.10
2019-05-30T12:04:36.599Z,31.10
2019-05-30T12:07:36.741Z,31.10
2019-05-30T12:10:29.157Z,31.00
2019-05-30T12:13:22.479Z,31.10
2019-05-30T12:16:17.274Z,31.10
2019-05-30T12:19:10.843Z,31.10
2019-05-30T12:22:13.839Z,31.10
2019-05-30T12:25:10.628Z,31.30
2019-05-30T12:28:12.117Z,31.40
2019-05-30T12:31:06.770Z,31.50
2019-05-30T12:34:03.373Z,31.40
2019-05-30T12:36:58.936Z,31.50
2019-05-30T12:39:54.890Z,31.50
2019-05-30T12:42:49.472Z,31.50
2019-05-30T12:45:46.662Z,31.50
2019-05-30T12:48:42.953Z,31.60
2019-05-30T12:51:39.778Z,31.70
2019-05-30T12:54:34.358Z,31.60
2019-05-30T12:57:28.620Z,31.60
2019-05-30T13:00:22.816Z,31.50
2019-05-30T13:03:17.255Z,31.50
2019-05-30T13:06:11.738Z,31.50
2019-05-30T13:09:08.019Z,31.40
2019-05-30T13:12:03.317Z,31.40
2019-05-30T13:14:59.590Z,31.40
2019-05-30T13:17:55.523Z,31.40
2019-05-30T13:20:50.153Z,31.40
2019-05-30T13:23:46.171Z,31.30
2019-05-30T13:26:41.555Z,31.30
2019-05-30T13:29:44.019Z,31.30
2019-05-30T13:32:39.638Z,31.30
2019-05-30T13:35:33.680Z,31.30
2019-05-30T13:38:28.945Z,31.30
2019-05-30T13:41:23.568Z,31.30
